sensor_id;sensor_type;location;lat;lon;timestamp;temperature;humidity
20057;DHT22;10189;49.546;7.906;2024-03-07T00:00:12;5.00;99.90
20057;DHT22;10189;49.546;7.906;2024-03-07T00:02:48;4.90;99.90
20057;DHT22;10189;49.546;7.906;2024-03-07T00:05:19;4.90;99.90
20057;DHT22;10189;49.546;7.906;2024-03-07T00:07:47;4.90;99.90
20057;DHT22;10189;49.546;7.906;2024-03-07T00:10:13;5.00;99.90
20057;DHT22;10189;49.546;7.906;2024-03-07T00:12:41;4.90;99.90
20057;DHT22;10189;49.546;7.906;2024-03-07T00:15:08;4.90;99.90
20057;DHT22;10189;49.546;7.906;2024-03-07T00:17:36;4.80;99.90
20057;DHT22;10189;49.546;7.906;2024-03-07T00:20:04;4.90;99.90
20057;DHT22;10189;49.546;7.906;2024-03-07T00:22:35;4.80;99.90
20057;DHT22;10189;49.546;7.906;2024-03-07T00:25:02;4.80;99.90
20057;DHT22;10189;49.546;7.906;2024-03-07T00:27:31;4.80;99.90
20057;DHT22;10189;49.546;7.906;2024-03-07T00:29:58;4.70;99.90
20057;DHT22;10189;49.546;7.906;2024-03-07T00:32:25;4.70;99.90
20057;DHT22;10189;49.546;7.906;2024-03-07T00:34:55;4.70;99.90
20057;DHT22;10189;49.546;7.906;2024-03-07T00:37:22;4.70;99.90
20057;DHT22;10189;49.546;7.906;2024-03-07T00:39:50;4.60;99.90
20057;DHT22;10189;49.546;7.906;2024-03-07T00:42:16;4.60;99.90
20057;DHT22;10189;49.546;7.906;2024-03-07T00:44:42;4.60;99.90
20057;DHT22;10189;49.546;7.906;2024-03-07T00:47:08;4.50;99.90
20057;DHT22;10189;49.546;7.906;2024-03-07T00:49:34;4.50;99.90
20057;DHT22;10189;49.546;7.906;2024-03-07T00:52:00;4.50;99.90
20057;DHT22;10189;49.546;7.906;2024-03-07T00:54:26;4.40;99.90
20057;DHT22;10189;49.546;7.906;2024-03-07T00:56:52;4.40;99.90
20057;DHT22;10189;49.546;7.906;2024-03-07T00:59:19;4.40;99.90
20057;DHT22;10189;49.546;7.906;2024-03-07T01:01:45;4.40;99.90
20057;DHT22;10189;49.546;7.906;2024-03-07T01:04:11;4.40;99.90
20057;DHT22;10189;49.546;7.906;2024-03-07T01:06:37;4.40;99.90
20057;DHT22;10189;49.546;7.906;2024-03-07T01:09:04;4.40;99.90
20057;DHT22;10189;49.546;7.906;2024-03-07T01:11:30;4.40;99.90
20057;DHT22;10189;49.546;7.906;2024-03-07T01:13:56;4.30;99.90
20057;DHT22;10189;49.546;7.906;2024-03-07T01:16:22;4.30;99.90
20057;DHT22;10189;49.546;7.906;2024-03-07T01:18:48;4.30;99.90
20057;DHT22;10189;49.546;7.906;2024-03-07T01:21:15;4.20;99.90
20057;DHT22;10189;49.546;7.906;2024-03-07T01:23:41;4.30;99.90
20057;DHT22;10189;49.546;7.906;2024-03-07T01:26:07;4.30;99.90
20057;DHT22;10189;49.546;7.906;2024-03-07T01:28:34;4.30;99.90
20057;DHT22;10189;49.546;7.906;2024-03-07T01:31:00;4.30;99.90
20057;DHT22;10189;49.546;7.906;2024-03-07T01:33:26;4.30;99.90
20057;DHT22;10189;49.546;7.906;2024-03-07T01:35:52;4.30;99.90
20057;DHT22;10189;49.546;7.906;2024-03-07T01:38:18;4.30;99.90
20057;DHT22;10189;49.546;7.906;2024-03-07T01:40:44;4.30;99.90
20057;DHT22;10189;49.546;7.906;2024-03-07T01:43:11;4.40;99.90
20057;DHT22;10189;49.546;7.906;2024-03-07T01:45:37;4.40;99.90
20057;DHT22;10189;49.546;7.906;2024-03-07T01:48:05;4.40;99.90
20057;DHT22;10189;49.546;7.906;2024-03-07T01:50:33;4.30;99.90
20057;DHT22;10189;49.546;7.906;2024-03-07T01:53:03;4.30;99.90
20057;DHT22;10189;49.546;7.906;2024-03-07T01:55:32;4.30;99.90
20057;DHT22;10189;49.546;7.906;2024-03-07T01:57:59;4.30;99.90
20057;DHT22;10189;49.546;7.906;2024-03-07T02:00:28;4.30;99.90
20057;DHT22;10189;49.546;7.906;2024-03-07T02:02:54;4.30;99.90
20057;DHT22;10189;49.546;7.906;2024-03-07T02:05:21;4.40;99.90
20057;DHT22;10189;49.546;7.906;2024-03-07T02:07:47;4.40;99.90
20057;DHT22;10189;49.546;7.906;2024-03-07T02:10:15;4.30;99.90
20057;DHT22;10189;49.546;7.906;2024-03-07T02:12:42;4.40;99.90
20057;DHT22;10189;49.546;7.906;2024-03-07T02:15:08;4.30;99.90
20057;DHT22;10189;49.546;7.906;2024-03-07T02:17:35;4.30;99.90
20057;DHT22;10189;49.546;7.906;2024-03-07T02:20:03;4.40;99.90
20057;DHT22;10189;49.546;7.906;2024-03-07T02:22:30;4.30;99.90
20057;DHT22;10189;49.546;7.906;2024-03-07T02:24:56;4.40;99.90
20057;DHT22;10189;49.546;7.906;2024-03-07T02:27:22;4.30;99.90
20057;DHT22;10189;49.546;7.906;2024-03-07T02:29:47;4.30;99.90
20057;DHT22;10189;49.546;7.906;2024-03-07T02:32:14;4.30;99.90
20057;DHT22;10189;49.546;7.906;2024-03-07T02:34:40;4.30;99.90
20057;DHT22;10189;49.546;7.906;2024-03-07T02:37:06;4.30;99.90
20057;DHT22;10189;49.546;7.906;2024-03-07T02:39:35;4.30;99.90
20057;DHT22;10189;49.546;7.906;2024-03-07T02:42:02;4.20;99.90
20057;DHT22;10189;49.546;7.906;2024-03-07T02:44:28;4.20;99.90
20057;DHT22;10189;49.546;7.906;2024-03-07T02:46:54;4.20;99.90
20057;DHT22;10189;49.546;7.906;2024-03-07T02:49:20;4.20;99.90
20057;DHT22;10189;49.546;7.906;2024-03-07T02:51:47;4.20;99.90
20057;DHT22;10189;49.546;7.906;2024-03-07T02:54:13;4.20;99.90
20057;DHT22;10189;49.546;7.906;2024-03-07T02:56:39;4.20;99.90
20057;DHT22;10189;49.546;7.906;2024-03-07T02:59:05;4.20;99.90
20057;DHT22;10189;49.546;7.906;2024-03-07T03:01:32;4.10;99.90
20057;DHT22;10189;49.546;7.906;2024-03-07T03:03:58;4.20;99.90
20057;DHT22;10189;49.546;7.906;2024-03-07T03:06:24;4.20;99.90
20057;DHT22;10189;49.546;7.906;2024-03-07T03:08:50;4.10;99.90
20057;DHT22;10189;49.546;7.906;2024-03-07T03:11:20;4.10;99.90
20057;DHT22;10189;49.546;7.906;2024-03-07T03:13:46;4.00;99.90
20057;DHT22;10189;49.546;7.906;2024-03-07T03:16:14;4.00;99.90
20057;DHT22;10189;49.546;7.906;2024-03-07T03:18:40;3.90;99.90
20057;DHT22;10189;49.546;7.906;2024-03-07T03:21:06;3.80;99.90
20057;DHT22;10189;49.546;7.906;2024-03-07T03:23:31;3.80;99.90
20057;DHT22;10189;49.546;7.906;2024-03-07T03:25:58;3.80;99.90
20057;DHT22;10189;49.546;7.906;2024-03-07T03:28:25;3.70;99.90
20057;DHT22;10189;49.546;7.906;2024-03-07T03:30:51;3.70;99.90
20057;DHT22;10189;49.546;7.906;2024-03-07T03:33:17;3.60;99.90
20057;DHT22;10189;49.546;7.906;2024-03-07T03:35:44;3.50;99.90
20057;DHT22;10189;49.546;7.906;2024-03-07T03:38:10;3.50;99.90
20057;DHT22;10189;49.546;7.906;2024-03-07T03:40:36;3.50;99.90
20057;DHT22;10189;49.546;7.906;2024-03-07T03:43:02;3.40;99.90
20057;DHT22;10189;49.546;7.906;2024-03-07T03:45:28;3.40;99.90
20057;DHT22;10189;49.546;7.906;2024-03-07T03:47:54;3.20;99.90
20057;DHT22;10189;49.546;7.906;2024-03-07T03:50:21;3.10;99.90
20057;DHT22;10189;49.546;7.906;2024-03-07T03:52:49;3.00;99.90
20057;DHT22;10189;49.546;7.906;2024-03-07T03:55:15;2.90;99.90
20057;DHT22;10189;49.546;7.906;2024-03-07T03:57:43;2.80;99.90
20057;DHT22;10189;49.546;7.906;2024-03-07T04:00:10;2.70;99.90
20057;DHT22;10189;49.546;7.906;2024-03-07T04:02:41;2.70;99.90
20057;DHT22;10189;49.546;7.906;2024-03-07T04:05:11;2.60;99.90
20057;DHT22;10189;49.546;7.906;2024-03-07T04:07:39;2.60;99.90
20057;DHT22;10189;49.546;7.906;2024-03-07T04:10:07;2.50;99.90
20057;DHT22;10189;49.546;7.906;2024-03-07T04:12:39;2.50;99.90
20057;DHT22;10189;49.546;7.906;2024-03-07T04:15:08;2.40;99.90
20057;DHT22;10189;49.546;7.906;2024-03-07T04:17:36;2.40;99.90
20057;DHT22;10189;49.546;7.906;2024-03-07T04:20:06;2.30;99.90
20057;DHT22;10189;49.546;7.906;2024-03-07T04:22:33;2.20;99.90
20057;DHT22;10189;49.546;7.906;2024-03-07T04:25:00;2.10;99.90
20057;DHT22;10189;49.546;7.906;2024-03-07T04:27:27;2.10;99.90
20057;DHT22;10189;49.546;7.906;2024-03-07T04:29:53;2.00;99.90
20057;DHT22;10189;49.546;7.906;2024-03-07T04:32:19;1.90;99.90
20057;DHT22;10189;49.546;7.906;2024-03-07T04:34:45;1.80;99.90
20057;DHT22;10189;49.546;7.906;2024-03-07T04:37:11;1.80;99.90
20057;DHT22;10189;49.546;7.906;2024-03-07T04:39:40;1.70;99.90
20057;DHT22;10189;49.546;7.906;2024-03-07T04:42:08;1.70;99.90
20057;DHT22;10189;49.546;7.906;2024-03-07T04:44:37;1.60;99.90
20057;DHT22;10189;49.546;7.906;2024-03-07T04:47:03;1.60;99.90
20057;DHT22;10189;49.546;7.906;2024-03-07T04:49:31;1.50;99.90
20057;DHT22;10189;49.546;7.906;2024-03-07T04:51:59;1.40;99.90
20057;DHT22;10189;49.546;7.906;2024-03-07T04:54:27;1.40;99.90
20057;DHT22;10189;49.546;7.906;2024-03-07T04:56:54;1.40;99.90
20057;DHT22;10189;49.546;7.906;2024-03-07T04:59:21;1.30;99.90
20057;DHT22;10189;49.546;7.906;2024-03-07T05:01:49;1.30;99.90
20057;DHT22;10189;49.546;7.906;2024-03-07T05:04:16;1.20;99.90
20057;DHT22;10189;49.546;7.906;2024-03-07T05:06:43;1.10;99.90
20057;DHT22;10189;49.546;7.906;2024-03-07T05:09:10;1.00;99.90
20057;DHT22;10189;49.546;7.906;2024-03-07T05:11:49;0.90;99.90
20057;DHT22;10189;49.546;7.906;2024-03-07T05:14:18;0.90;99.90
20057;DHT22;10189;49.546;7.906;2024-03-07T05:16:44;0.80;99.90
20057;DHT22;10189;49.546;7.906;2024-03-07T05:19:10;0.70;99.90
20057;DHT22;10189;49.546;7.906;2024-03-07T05:21:36;0.60;99.90
20057;DHT22;10189;49.546;7.906;2024-03-07T05:24:08;0.70;99.90
20057;DHT22;10189;49.546;7.906;2024-03-07T05:26:35;0.60;99.90
20057;DHT22;10189;49.546;7.906;2024-03-07T05:29:09;0.60;99.90
20057;DHT22;10189;49.546;7.906;2024-03-07T05:31:39;0.60;99.90
20057;DHT22;10189;49.546;7.906;2024-03-07T05:34:15;0.50;99.90
20057;DHT22;10189;49.546;7.906;2024-03-07T05:36:45;0.40;99.90
20057;DHT22;10189;49.546;7.906;2024-03-07T05:39:16;0.30;99.90
20057;DHT22;10189;49.546;7.906;2024-03-07T05:41:44;0.30;99.90
20057;DHT22;10189;49.546;7.906;2024-03-07T05:44:11;0.30;99.90
20057;DHT22;10189;49.546;7.906;2024-03-07T05:46:41;0.30;99.90
20057;DHT22;10189;49.546;7.906;2024-03-07T05:49:15;0.30;99.90
20057;DHT22;10189;49.546;7.906;2024-03-07T05:51:42;0.20;99.90
20057;DHT22;10189;49.546;7.906;2024-03-07T05:54:11;0.20;99.90
20057;DHT22;10189;49.546;7.906;2024-03-07T05:56:39;0.20;99.90
20057;DHT22;10189;49.546;7.906;2024-03-07T05:59:07;0.10;99.90
20057;DHT22;10189;49.546;7.906;2024-03-07T06:01:38;0.10;99.90
20057;DHT22;10189;49.546;7.906;2024-03-07T06:04:06;0.00;99.90
20057;DHT22;10189;49.546;7.906;2024-03-07T06:06:36;-0.10;99.90
20057;DHT22;10189;49.546;7.906;2024-03-07T06:09:05;-0.10;99.90
20057;DHT22;10189;49.546;7.906;2024-03-07T06:14:05;-0.30;99.90
20057;DHT22;10189;49.546;7.906;2024-03-07T06:16:36;-0.30;99.90
20057;DHT22;10189;49.546;7.906;2024-03-07T06:19:04;-0.40;99.90
20057;DHT22;10189;49.546;7.906;2024-03-07T06:21:38;-0.40;99.90
20057;DHT22;10189;49.546;7.906;2024-03-07T06:24:05;-0.40;99.90
20057;DHT22;10189;49.546;7.906;2024-03-07T06:26:34;-0.30;99.90
20057;DHT22;10189;49.546;7.906;2024-03-07T06:29:10;-0.30;99.90
20057;DHT22;10189;49.546;7.906;2024-03-07T06:31:40;-0.20;99.90
20057;DHT22;10189;49.546;7.906;2024-03-07T06:34:08;-0.20;99.90
20057;DHT22;10189;49.546;7.906;2024-03-07T06:36:35;-0.20;99.90
20057;DHT22;10189;49.546;7.906;2024-03-07T06:39:02;-0.20;99.90
20057;DHT22;10189;49.546;7.906;2024-03-07T06:41:35;-0.20;99.90
20057;DHT22;10189;49.546;7.906;2024-03-07T06:44:02;-0.10;99.90
20057;DHT22;10189;49.546;7.906;2024-03-07T06:46:28;0.00;99.90
20057;DHT22;10189;49.546;7.906;2024-03-07T06:48:55;0.10;99.90
20057;DHT22;10189;49.546;7.906;2024-03-07T06:51:24;0.10;99.90
20057;DHT22;10189;49.546;7.906;2024-03-07T06:53:50;0.20;99.90
20057;DHT22;10189;49.546;7.906;2024-03-07T06:56:17;0.20;99.90
20057;DHT22;10189;49.546;7.906;2024-03-07T06:58:43;0.30;99.90
20057;DHT22;10189;49.546;7.906;2024-03-07T07:01:13;0.30;99.90
20057;DHT22;10189;49.546;7.906;2024-03-07T07:03:41;0.30;99.90
20057;DHT22;10189;49.546;7.906;2024-03-07T07:06:11;0.30;99.90
20057;DHT22;10189;49.546;7.906;2024-03-07T07:08:37;0.30;99.90
20057;DHT22;10189;49.546;7.906;2024-03-07T07:11:03;0.30;99.90
20057;DHT22;10189;49.546;7.906;2024-03-07T07:13:30;0.30;99.90
20057;DHT22;10189;49.546;7.906;2024-03-07T07:15:57;0.30;99.90
20057;DHT22;10189;49.546;7.906;2024-03-07T07:18:23;0.40;99.90
20057;DHT22;10189;49.546;7.906;2024-03-07T07:20:49;0.50;99.90
20057;DHT22;10189;49.546;7.906;2024-03-07T07:23:19;0.50;99.90
20057;DHT22;10189;49.546;7.906;2024-03-07T07:25:45;0.60;99.90
20057;DHT22;10189;49.546;7.906;2024-03-07T07:28:12;0.70;99.90
20057;DHT22;10189;49.546;7.906;2024-03-07T07:30:37;0.70;99.90
20057;DHT22;10189;49.546;7.906;2024-03-07T07:33:04;0.70;99.90
20057;DHT22;10189;49.546;7.906;2024-03-07T07:35:30;0.80;99.90
20057;DHT22;10189;49.546;7.906;2024-03-07T07:37:56;0.80;99.90
20057;DHT22;10189;49.546;7.906;2024-03-07T07:40:23;0.90;99.90
20057;DHT22;10189;49.546;7.906;2024-03-07T07:42:53;0.90;99.90
20057;DHT22;10189;49.546;7.906;2024-03-07T07:45:20;1.00;99.90
20057;DHT22;10189;49.546;7.906;2024-03-07T07:47:49;1.10;99.90
20057;DHT22;10189;49.546;7.906;2024-03-07T07:50:18;1.10;99.90
20057;DHT22;10189;49.546;7.906;2024-03-07T07:55:24;1.40;99.90
20057;DHT22;10189;49.546;7.906;2024-03-07T07:57:55;1.60;99.90
20057;DHT22;10189;49.546;7.906;2024-03-07T08:00:28;1.70;99.90
20057;DHT22;10189;49.546;7.906;2024-03-07T08:02:55;1.80;99.90
20057;DHT22;10189;49.546;7.906;2024-03-07T08:05:25;1.80;99.90
20057;DHT22;10189;49.546;7.906;2024-03-07T08:07:58;1.80;99.90
20057;DHT22;10189;49.546;7.906;2024-03-07T08:10:27;1.80;99.90
20057;DHT22;10189;49.546;7.906;2024-03-07T08:12:59;1.90;99.90
20057;DHT22;10189;49.546;7.906;2024-03-07T08:15:29;2.10;99.90
20057;DHT22;10189;49.546;7.906;2024-03-07T08:17:56;2.20;99.90
20057;DHT22;10189;49.546;7.906;2024-03-07T08:20:24;2.40;99.90
20057;DHT22;10189;49.546;7.906;2024-03-07T08:22:52;2.50;99.90
20057;DHT22;10189;49.546;7.906;2024-03-07T08:25:24;2.60;99.90
20057;DHT22;10189;49.546;7.906;2024-03-07T08:27:56;2.60;99.90
20057;DHT22;10189;49.546;7.906;2024-03-07T08:30:24;2.60;99.90
20057;DHT22;10189;49.546;7.906;2024-03-07T08:32:53;2.70;99.90
20057;DHT22;10189;49.546;7.906;2024-03-07T08:35:20;2.90;99.90
20057;DHT22;10189;49.546;7.906;2024-03-07T08:37:48;3.10;99.90
20057;DHT22;10189;49.546;7.906;2024-03-07T08:40:19;3.10;99.90
20057;DHT22;10189;49.546;7.906;2024-03-07T08:42:53;3.20;99.90
20057;DHT22;10189;49.546;7.906;2024-03-07T08:45:23;3.30;99.90
20057;DHT22;10189;49.546;7.906;2024-03-07T08:47:50;3.30;99.90
20057;DHT22;10189;49.546;7.906;2024-03-07T08:50:18;3.40;99.90
20057;DHT22;10189;49.546;7.906;2024-03-07T08:52:44;3.60;99.90
20057;DHT22;10189;49.546;7.906;2024-03-07T08:55:16;3.70;99.90
20057;DHT22;10189;49.546;7.906;2024-03-07T08:57:43;3.70;98.30
20057;DHT22;10189;49.546;7.906;2024-03-07T09:00:12;3.80;98.80
20057;DHT22;10189;49.546;7.906;2024-03-07T09:02:53;3.90;97.00
20057;DHT22;10189;49.546;7.906;2024-03-07T09:05:22;3.90;97.60
20057;DHT22;10189;49.546;7.906;2024-03-07T09:07:49;3.90;96.70
20057;DHT22;10189;49.546;7.906;2024-03-07T09:10:16;3.90;95.50
20057;DHT22;10189;49.546;7.906;2024-03-07T09:12:46;4.00;95.70
20057;DHT22;10189;49.546;7.906;2024-03-07T09:15:16;4.10;92.70
20057;DHT22;10189;49.546;7.906;2024-03-07T09:17:43;4.20;93.20
20057;DHT22;10189;49.546;7.906;2024-03-07T09:20:10;4.40;92.90
20057;DHT22;10189;49.546;7.906;2024-03-07T09:22:43;4.30;90.30
20057;DHT22;10189;49.546;7.906;2024-03-07T09:25:09;4.10;89.70
20057;DHT22;10189;49.546;7.906;2024-03-07T09:27:36;4.10;91.10
20057;DHT22;10189;49.546;7.906;2024-03-07T09:30:04;4.00;90.60
20057;DHT22;10189;49.546;7.906;2024-03-07T09:32:30;4.10;90.70
20057;DHT22;10189;49.546;7.906;2024-03-07T09:34:58;4.10;90.50
20057;DHT22;10189;49.546;7.906;2024-03-07T09:37:25;4.40;90.10
20057;DHT22;10189;49.546;7.906;2024-03-07T09:39:52;4.50;87.80
20057;DHT22;10189;49.546;7.906;2024-03-07T09:42:18;4.50;86.60
20057;DHT22;10189;49.546;7.906;2024-03-07T09:44:45;4.50;85.80
20057;DHT22;10189;49.546;7.906;2024-03-07T09:47:14;4.60;83.40
20057;DHT22;10189;49.546;7.906;2024-03-07T09:49:40;4.30;84.90
20057;DHT22;10189;49.546;7.906;2024-03-07T09:52:07;4.30;85.00
20057;DHT22;10189;49.546;7.906;2024-03-07T09:54:40;4.20;85.70
20057;DHT22;10189;49.546;7.906;2024-03-07T09:57:06;4.20;86.00
20057;DHT22;10189;49.546;7.906;2024-03-07T09:59:35;4.30;84.80
20057;DHT22;10189;49.546;7.906;2024-03-07T10:02:06;4.40;86.30
20057;DHT22;10189;49.546;7.906;2024-03-07T10:04:44;4.40;85.20
20057;DHT22;10189;49.546;7.906;2024-03-07T10:07:17;4.50;84.20
20057;DHT22;10189;49.546;7.906;2024-03-07T10:09:44;4.50;81.60
20057;DHT22;10189;49.546;7.906;2024-03-07T10:12:11;4.40;81.20
20057;DHT22;10189;49.546;7.906;2024-03-07T10:14:50;4.30;81.60
20057;DHT22;10189;49.546;7.906;2024-03-07T10:17:23;4.40;81.90
20057;DHT22;10189;49.546;7.906;2024-03-07T10:19:51;4.50;81.40
20057;DHT22;10189;49.546;7.906;2024-03-07T10:22:19;4.60;80.70
20057;DHT22;10189;49.546;7.906;2024-03-07T10:24:51;4.60;81.30
20057;DHT22;10189;49.546;7.906;2024-03-07T10:27:27;4.60;82.20
20057;DHT22;10189;49.546;7.906;2024-03-07T10:29:54;4.70;82.20
20057;DHT22;10189;49.546;7.906;2024-03-07T10:32:23;4.80;82.40
20057;DHT22;10189;49.546;7.906;2024-03-07T10:34:53;4.70;82.00
20057;DHT22;10189;49.546;7.906;2024-03-07T10:37:24;4.50;82.60
20057;DHT22;10189;49.546;7.906;2024-03-07T10:39:51;4.30;82.10
20057;DHT22;10189;49.546;7.906;2024-03-07T10:42:18;4.30;82.70
20057;DHT22;10189;49.546;7.906;2024-03-07T10:44:46;4.30;84.90
20057;DHT22;10189;49.546;7.906;2024-03-07T10:47:17;4.50;82.70
20057;DHT22;10189;49.546;7.906;2024-03-07T10:50:19;4.30;82.80
20057;DHT22;10189;49.546;7.906;2024-03-07T10:52:59;4.30;83.20
20057;DHT22;10189;49.546;7.906;2024-03-07T11:01:40;4.80;82.10
20057;DHT22;10189;49.546;7.906;2024-03-07T11:04:17;4.70;82.70
20057;DHT22;10189;49.546;7.906;2024-03-07T11:06:44;4.80;84.10
20057;DHT22;10189;49.546;7.906;2024-03-07T11:09:10;5.10;81.40
20057;DHT22;10189;49.546;7.906;2024-03-07T11:11:38;5.10;79.70
20057;DHT22;10189;49.546;7.906;2024-03-07T11:14:07;5.30;81.60
20057;DHT22;10189;49.546;7.906;2024-03-07T11:16:38;5.30;78.80
20057;DHT22;10189;49.546;7.906;2024-03-07T11:19:28;5.30;79.70
20057;DHT22;10189;49.546;7.906;2024-03-07T11:22:00;5.30;78.30
20057;DHT22;10189;49.546;7.906;2024-03-07T11:24:28;5.40;79.70
20057;DHT22;10189;49.546;7.906;2024-03-07T11:26:58;5.40;78.50
20057;DHT22;10189;49.546;7.906;2024-03-07T11:32:19;5.40;78.70
20057;DHT22;10189;49.546;7.906;2024-03-07T11:34:47;5.50;79.40
20057;DHT22;10189;49.546;7.906;2024-03-07T11:37:37;5.50;77.80
20057;DHT22;10189;49.546;7.906;2024-03-07T11:40:12;5.40;77.50
20057;DHT22;10189;49.546;7.906;2024-03-07T11:42:46;5.40;78.00
20057;DHT22;10189;49.546;7.906;2024-03-07T11:45:16;5.70;79.80
20057;DHT22;10189;49.546;7.906;2024-03-07T11:47:58;6.10;75.80
20057;DHT22;10189;49.546;7.906;2024-03-07T11:50:26;5.80;77.00
20057;DHT22;10189;49.546;7.906;2024-03-07T11:52:56;5.70;75.50
20057;DHT22;10189;49.546;7.906;2024-03-07T11:55:22;5.70;77.70
20057;DHT22;10189;49.546;7.906;2024-03-07T11:57:49;5.70;77.70
20057;DHT22;10189;49.546;7.906;2024-03-07T12:00:18;5.60;76.10
20057;DHT22;10189;49.546;7.906;2024-03-07T12:02:44;5.60;77.60
20057;DHT22;10189;49.546;7.906;2024-03-07T12:05:11;5.60;76.30
20057;DHT22;10189;49.546;7.906;2024-03-07T12:07:41;5.50;76.30
20057;DHT22;10189;49.546;7.906;2024-03-07T12:10:09;5.30;77.80
20057;DHT22;10189;49.546;7.906;2024-03-07T12:12:36;5.40;79.60
20057;DHT22;10189;49.546;7.906;2024-03-07T12:15:08;5.70;78.50
20057;DHT22;10189;49.546;7.906;2024-03-07T12:17:46;6.10;78.70
20057;DHT22;10189;49.546;7.906;2024-03-07T12:20:18;6.30;77.50
20057;DHT22;10189;49.546;7.906;2024-03-07T12:22:51;6.20;77.80
20057;DHT22;10189;49.546;7.906;2024-03-07T12:25:20;6.40;76.70
20057;DHT22;10189;49.546;7.906;2024-03-07T12:28:10;6.70;76.40
20057;DHT22;10189;49.546;7.906;2024-03-07T12:33:15;7.30;75.60
20057;DHT22;10189;49.546;7.906;2024-03-07T12:35:50;7.40;77.00
20057;DHT22;10189;49.546;7.906;2024-03-07T12:38:18;7.30;75.80
20057;DHT22;10189;49.546;7.906;2024-03-07T12:40:45;7.20;74.60
20057;DHT22;10189;49.546;7.906;2024-03-07T12:43:22;7.10;74.10
20057;DHT22;10189;49.546;7.906;2024-03-07T12:45:51;6.90;75.00
20057;DHT22;10189;49.546;7.906;2024-03-07T12:48:21;6.70;74.60
20057;DHT22;10189;49.546;7.906;2024-03-07T12:50:47;6.40;76.90
20057;DHT22;10189;49.546;7.906;2024-03-07T12:53:21;6.50;77.40
20057;DHT22;10189;49.546;7.906;2024-03-07T12:55:48;6.80;77.80
20057;DHT22;10189;49.546;7.906;2024-03-07T12:58:14;7.00;76.90
20057;DHT22;10189;49.546;7.906;2024-03-07T13:00:41;7.20;75.80
20057;DHT22;10189;49.546;7.906;2024-03-07T13:03:09;7.00;77.10
20057;DHT22;10189;49.546;7.906;2024-03-07T13:05:39;7.00;74.50
20057;DHT22;10189;49.546;7.906;2024-03-07T13:08:10;6.80;75.90
20057;DHT22;10189;49.546;7.906;2024-03-07T13:10:39;6.70;76.00
20057;DHT22;10189;49.546;7.906;2024-03-07T13:13:07;6.50;76.80
20057;DHT22;10189;49.546;7.906;2024-03-07T13:15:37;6.60;76.60
20057;DHT22;10189;49.546;7.906;2024-03-07T13:18:05;6.60;76.60
20057;DHT22;10189;49.546;7.906;2024-03-07T13:20:32;6.70;77.40
20057;DHT22;10189;49.546;7.906;2024-03-07T13:22:58;7.00;78.60
20057;DHT22;10189;49.546;7.906;2024-03-07T13:25:27;7.20;75.70
20057;DHT22;10189;49.546;7.906;2024-03-07T13:28:13;7.20;76.50
20057;DHT22;10189;49.546;7.906;2024-03-07T13:30:45;7.20;74.80
20057;DHT22;10189;49.546;7.906;2024-03-07T13:33:14;7.30;76.00
20057;DHT22;10189;49.546;7.906;2024-03-07T13:35:40;7.50;74.70
20057;DHT22;10189;49.546;7.906;2024-03-07T13:38:07;7.80;75.60
20057;DHT22;10189;49.546;7.906;2024-03-07T13:40:35;7.80;73.80
20057;DHT22;10189;49.546;7.906;2024-03-07T13:43:04;7.70;73.70
20057;DHT22;10189;49.546;7.906;2024-03-07T13:45:33;7.70;73.90
20057;DHT22;10189;49.546;7.906;2024-03-07T13:48:10;7.90;74.60
20057;DHT22;10189;49.546;7.906;2024-03-07T13:50:39;8.00;76.50
20057;DHT22;10189;49.546;7.906;2024-03-07T13:53:10;8.20;73.90
20057;DHT22;10189;49.546;7.906;2024-03-07T13:59:10;8.50;74.00
20057;DHT22;10189;49.546;7.906;2024-03-07T14:02:08;8.20;73.40
20057;DHT22;10189;49.546;7.906;2024-03-07T14:11:16;7.40;77.70
20057;DHT22;10189;49.546;7.906;2024-03-07T14:33:17;7.40;77.90
20057;DHT22;10189;49.546;7.906;2024-03-07T14:38:51;7.40;78.70
20057;DHT22;10189;49.546;7.906;2024-03-07T14:41:23;7.30;79.30
20057;DHT22;10189;49.546;7.906;2024-03-07T14:44:05;7.30;79.60
20057;DHT22;10189;49.546;7.906;2024-03-07T14:46:33;7.20;80.50
20057;DHT22;10189;49.546;7.906;2024-03-07T14:49:00;7.30;80.60
20057;DHT22;10189;49.546;7.906;2024-03-07T14:51:26;7.20;80.80
20057;DHT22;10189;49.546;7.906;2024-03-07T14:53:52;7.20;80.80
20057;DHT22;10189;49.546;7.906;2024-03-07T14:56:18;7.10;80.70
20057;DHT22;10189;49.546;7.906;2024-03-07T14:58:46;7.20;81.30
20057;DHT22;10189;49.546;7.906;2024-03-07T15:01:12;7.30;82.00
20057;DHT22;10189;49.546;7.906;2024-03-07T15:03:38;7.50;80.20
20057;DHT22;10189;49.546;7.906;2024-03-07T15:06:07;7.60;79.90
20057;DHT22;10189;49.546;7.906;2024-03-07T15:08:35;7.40;79.60
20057;DHT22;10189;49.546;7.906;2024-03-07T15:11:57;7.30;81.30
20057;DHT22;10189;49.546;7.906;2024-03-07T15:14:16;7.40;80.60
20057;DHT22;10189;49.546;7.906;2024-03-07T15:16:42;7.40;80.20
20057;DHT22;10189;49.546;7.906;2024-03-07T15:19:08;7.30;80.60
20057;DHT22;10189;49.546;7.906;2024-03-07T15:21:38;7.30;81.00
20057;DHT22;10189;49.546;7.906;2024-03-07T15:24:04;7.30;80.10
20057;DHT22;10189;49.546;7.906;2024-03-07T15:26:30;7.20;80.20
20057;DHT22;10189;49.546;7.906;2024-03-07T15:28:57;7.20;80.70
20057;DHT22;10189;49.546;7.906;2024-03-07T15:31:23;7.20;80.90
20057;DHT22;10189;49.546;7.906;2024-03-07T15:33:50;7.40;80.10
20057;DHT22;10189;49.546;7.906;2024-03-07T15:36:19;7.60;79.80
20057;DHT22;10189;49.546;7.906;2024-03-07T15:38:47;7.70;79.20
20057;DHT22;10189;49.546;7.906;2024-03-07T15:41:14;7.70;78.60
20057;DHT22;10189;49.546;7.906;2024-03-07T15:43:41;7.60;78.90
20057;DHT22;10189;49.546;7.906;2024-03-07T15:46:13;7.50;78.40
20057;DHT22;10189;49.546;7.906;2024-03-07T15:48:44;7.40;79.30
20057;DHT22;10189;49.546;7.906;2024-03-07T15:51:12;7.40;80.30
20057;DHT22;10189;49.546;7.906;2024-03-07T15:53:40;7.40;78.70
20057;DHT22;10189;49.546;7.906;2024-03-07T15:56:06;7.20;79.10
20057;DHT22;10189;49.546;7.906;2024-03-07T15:58:33;7.20;80.30
20057;DHT22;10189;49.546;7.906;2024-03-07T16:00:59;7.10;80.10
20057;DHT22;10189;49.546;7.906;2024-03-07T16:03:26;7.00;80.80
20057;DHT22;10189;49.546;7.906;2024-03-07T16:05:53;6.90;81.00
20057;DHT22;10189;49.546;7.906;2024-03-07T16:08:19;6.90;81.00
20057;DHT22;10189;49.546;7.906;2024-03-07T16:10:45;6.80;81.40
20057;DHT22;10189;49.546;7.906;2024-03-07T16:13:13;6.70;81.60
20057;DHT22;10189;49.546;7.906;2024-03-07T16:15:43;6.70;82.70
20057;DHT22;10189;49.546;7.906;2024-03-07T16:18:11;6.70;82.30
20057;DHT22;10189;49.546;7.906;2024-03-07T16:20:38;6.70;82.20
20057;DHT22;10189;49.546;7.906;2024-03-07T16:23:05;6.70;82.50
20057;DHT22;10189;49.546;7.906;2024-03-07T16:25:32;6.70;82.30
20057;DHT22;10189;49.546;7.906;2024-03-07T16:28:06;6.70;82.40
20057;DHT22;10189;49.546;7.906;2024-03-07T16:30:33;6.60;82.90
20057;DHT22;10189;49.546;7.906;2024-03-07T16:32:59;6.60;83.40
20057;DHT22;10189;49.546;7.906;2024-03-07T16:35:29;6.60;83.30
20057;DHT22;10189;49.546;7.906;2024-03-07T16:37:59;6.60;83.30
20057;DHT22;10189;49.546;7.906;2024-03-07T16:40:27;6.50;83.30
20057;DHT22;10189;49.546;7.906;2024-03-07T16:42:56;6.50;83.80